sensor_id;sensor_type;location;lat;lon;timestamp;pressure;altitude;pressure_sealevel;temperature;humidity
70027;BME280;57506;50.092;15.804;2023-06-22T00:01:27;99309.63;;;18.19;100.00
70027;BME280;57506;50.092;15.804;2023-06-22T00:03:53;99307.16;;;18.18;100.00
70027;BME280;57506;50.092;15.804;2023-06-22T00:06:18;99304.44;;;18.18;100.00
70027;BME280;57506;50.092;15.804;2023-06-22T00:08:44;99301.72;;;18.18;100.00
70027;BME280;57506;50.092;15.804;2023-06-22T00:11:10;99304.06;;;18.26;100.00
70027;BME280;57506;50.092;15.804;2023-06-22T00:13:35;99301.19;;;18.33;100.00
70027;BME280;57506;50.092;15.804;2023-06-22T00:16:01;99297.94;;;18.47;100.00
70027;BME280;57506;50.092;15.804;2023-06-22T00:18:27;99300.28;;;18.56;100.00
70027;BME280;57506;50.092;15.804;2023-06-22T00:20:54;99306.81;;;18.54;100.00
70027;BME280;57506;50.092;15.804;2023-06-22T00:23:23;99313.47;;;18.59;100.00
70027;BME280;57506;50.092;15.804;2023-06-22T00:25:49;99316.31;;;18.64;100.00
70027;BME280;57506;50.092;15.804;2023-06-22T00:28:15;99324.69;;;18.74;100.00
70027;BME280;57506;50.092;15.804;2023-06-22T00:30:40;99321.50;;;18.77;100.00
70027;BME280;57506;50.092;15.804;2023-06-22T00:33:06;99327.13;;;18.87;100.00
70027;BME280;57506;50.092;15.804;2023-06-22T00:35:33;99323.31;;;18.88;100.00
70027;BME280;57506;50.092;15.804;2023-06-22T00:38:00;99336.38;;;18.86;100.00
70027;BME280;57506;50.092;15.804;2023-06-22T00:40:30;99333.59;;;18.81;100.00
70027;BME280;57506;50.092;15.804;2023-06-22T00:42:56;99334.06;;;18.78;100.00
70027;BME280;57506;50.092;15.804;2023-06-22T00:45:24;99335.63;;;18.74;100.00
70027;BME280;57506;50.092;15.804;2023-06-22T00:47:51;99341.09;;;18.74;100.00
70027;BME280;57506;50.092;15.804;2023-06-22T00:50:20;99338.00;;;18.70;100.00
70027;BME280;57506;50.092;15.804;2023-06-22T00:52:57;99340.97;;;18.69;100.00
70027;BME280;57506;50.092;15.804;2023-06-22T00:55:24;99333.84;;;18.68;100.00
70027;BME280;57506;50.092;15.804;2023-06-22T00:57:51;99333.03;;;18.67;100.00
70027;BME280;57506;50.092;15.804;2023-06-22T01:00:22;99328.97;;;18.70;100.00
70027;BME280;57506;50.092;15.804;2023-06-22T01:02:53;99335.50;;;18.69;100.00
70027;BME280;57506;50.092;15.804;2023-06-22T01:05:22;99329.44;;;18.78;100.00
70027;BME280;57506;50.092;15.804;2023-06-22T01:08:28;99328.72;;;18.83;100.00
70027;BME280;57506;50.092;15.804;2023-06-22T01:16:27;99320.41;;;18.78;100.00
70027;BME280;57506;50.092;15.804;2023-06-22T01:18:56;99325.88;;;18.78;100.00
70027;BME280;57506;50.092;15.804;2023-06-22T01:21:23;99325.78;;;18.73;100.00
70027;BME280;57506;50.092;15.804;2023-06-22T01:26:57;99338.97;;;18.52;100.00
70027;BME280;57506;50.092;15.804;2023-06-22T01:29:26;99338.66;;;18.37;100.00
70027;BME280;57506;50.092;15.804;2023-06-22T01:31:54;99340.13;;;18.28;100.00
70027;BME280;57506;50.092;15.804;2023-06-22T01:34:21;99345.44;;;18.23;100.00
70027;BME280;57506;50.092;15.804;2023-06-22T01:36:49;99328.25;;;18.23;100.00
70027;BME280;57506;50.092;15.804;2023-06-22T01:39:16;99330.47;;;18.37;100.00
70027;BME280;57506;50.092;15.804;2023-06-22T01:41:42;99339.25;;;18.39;100.00
70027;BME280;57506;50.092;15.804;2023-06-22T01:44:09;99332.63;;;18.24;100.00
70027;BME280;57506;50.092;15.804;2023-06-22T01:46:36;99342.28;;;18.14;100.00
70027;BME280;57506;50.092;15.804;2023-06-22T01:49:03;99332.16;;;18.27;100.00
70027;BME280;57506;50.092;15.804;2023-06-22T01:51:29;99325.06;;;18.26;100.00
70027;BME280;57506;50.092;15.804;2023-06-22T01:53:55;99320.91;;;18.23;100.00
70027;BME280;57506;50.092;15.804;2023-06-22T01:56:21;99316.28;;;18.24;100.00
70027;BME280;57506;50.092;15.804;2023-06-22T01:59:08;99327.91;;;18.19;100.00
70027;BME280;57506;50.092;15.804;2023-06-22T02:01:49;99322.94;;;18.04;100.00
70027;BME280;57506;50.092;15.804;2023-06-22T02:04:22;99328.78;;;17.96;100.00
70027;BME280;57506;50.092;15.804;2023-06-22T02:06:52;99312.19;;;17.98;100.00
70027;BME280;57506;50.092;15.804;2023-06-22T02:09:22;99302.19;;;18.15;100.00
70027;BME280;57506;50.092;15.804;2023-06-22T02:11:51;99286.88;;;18.02;100.00
70027;BME280;57506;50.092;15.804;2023-06-22T02:14:21;99290.09;;;18.11;100.00
70027;BME280;57506;50.092;15.804;2023-06-22T02:16:47;99281.56;;;18.07;100.00
70027;BME280;57506;50.092;15.804;2023-06-22T02:19:12;99288.31;;;18.05;100.00
70027;BME280;57506;50.092;15.804;2023-06-22T02:21:41;99294.50;;;18.00;100.00
70027;BME280;57506;50.092;15.804;2023-06-22T02:24:06;99301.63;;;17.90;100.00
70027;BME280;57506;50.092;15.804;2023-06-22T02:26:32;99293.34;;;17.85;100.00
70027;BME280;57506;50.092;15.804;2023-06-22T02:28:58;99291.78;;;17.89;100.00
70027;BME280;57506;50.092;15.804;2023-06-22T02:31:23;99295.56;;;17.88;100.00
70027;BME280;57506;50.092;15.804;2023-06-22T02:33:58;99295.47;;;17.82;100.00
70027;BME280;57506;50.092;15.804;2023-06-22T02:36:25;99295.34;;;17.77;100.00
70027;BME280;57506;50.092;15.804;2023-06-22T02:38:52;99309.34;;;17.69;100.00
70027;BME280;57506;50.092;15.804;2023-06-22T02:41:19;99303.84;;;17.58;100.00
70027;BME280;57506;50.092;15.804;2023-06-22T02:43:45;99319.13;;;17.47;100.00
70027;BME280;57506;50.092;15.804;2023-06-22T02:46:12;99312.94;;;17.40;100.00
70027;BME280;57506;50.092;15.804;2023-06-22T02:48:39;99306.09;;;17.49;100.00
70027;BME280;57506;50.092;15.804;2023-06-22T02:51:05;99288.47;;;17.63;100.00
70027;BME280;57506;50.092;15.804;2023-06-22T02:53:30;99279.09;;;17.71;100.00
70027;BME280;57506;50.092;15.804;2023-06-22T02:55:57;99302.34;;;17.73;100.00
70027;BME280;57506;50.092;15.804;2023-06-22T02:58:22;99310.41;;;17.68;100.00
70027;BME280;57506;50.092;15.804;2023-06-22T03:00:47;99313.63;;;17.65;100.00
70027;BME280;57506;50.092;15.804;2023-06-22T03:03:13;99303.63;;;17.59;100.00
70027;BME280;57506;50.092;15.804;2023-06-22T03:05:38;99322.22;;;17.62;100.00
70027;BME280;57506;50.092;15.804;2023-06-22T03:08:05;99328.97;;;17.60;100.00
70027;BME280;57506;50.092;15.804;2023-06-22T03:10:31;99321.41;;;17.62;100.00
70027;BME280;57506;50.092;15.804;2023-06-22T03:12:56;99320.13;;;17.64;100.00
70027;BME280;57506;50.092;15.804;2023-06-22T03:15:22;99326.63;;;17.63;100.00
70027;BME280;57506;50.092;15.804;2023-06-22T03:17:47;99335.84;;;17.62;100.00
70027;BME280;57506;50.092;15.804;2023-06-22T03:20:13;99331.22;;;17.63;100.00
70027;BME280;57506;50.092;15.804;2023-06-22T03:22:40;99302.56;;;17.72;100.00
70027;BME280;57506;50.092;15.804;2023-06-22T03:25:07;99315.25;;;17.90;100.00
70027;BME280;57506;50.092;15.804;2023-06-22T03:27:38;99313.25;;;17.97;100.00
70027;BME280;57506;50.092;15.804;2023-06-22T03:30:04;99328.31;;;17.99;100.00
70027;BME280;57506;50.092;15.804;2023-06-22T03:32:30;99319.63;;;17.91;100.00
70027;BME280;57506;50.092;15.804;2023-06-22T03:34:55;99326.03;;;17.96;100.00
70027;BME280;57506;50.092;15.804;2023-06-22T03:37:26;99334.81;;;17.98;100.00
70027;BME280;57506;50.092;15.804;2023-06-22T03:39:52;99326.03;;;17.96;100.00
70027;BME280;57506;50.092;15.804;2023-06-22T03:42:18;99334.00;;;17.98;100.00
70027;BME280;57506;50.092;15.804;2023-06-22T03:44:44;99321.88;;;18.05;100.00
70027;BME280;57506;50.092;15.804;2023-06-22T03:47:09;99329.56;;;18.20;100.00
70027;BME280;57506;50.092;15.804;2023-06-22T03:49:35;99335.59;;;18.22;100.00
70027;BME280;57506;50.092;15.804;2023-06-22T03:52:02;99334.66;;;18.28;100.00
70027;BME280;57506;50.092;15.804;2023-06-22T03:54:29;99329.31;;;18.33;100.00
70027;BME280;57506;50.092;15.804;2023-06-22T03:56:56;99326.19;;;18.41;100.00
70027;BME280;57506;50.092;15.804;2023-06-22T03:59:21;99330.44;;;18.61;100.00
70027;BME280;57506;50.092;15.804;2023-06-22T04:01:47;99330.84;;;18.81;100.00
70027;BME280;57506;50.092;15.804;2023-06-22T04:04:12;99337.38;;;18.80;100.00
70027;BME280;57506;50.092;15.804;2023-06-22T04:06:38;99336.22;;;18.76;100.00
70027;BME280;57506;50.092;15.804;2023-06-22T04:09:05;99334.19;;;18.83;100.00
70027;BME280;57506;50.092;15.804;2023-06-22T04:11:31;99315.91;;;18.72;100.00
70027;BME280;57506;50.092;15.804;2023-06-22T04:13:57;99334.25;;;18.88;100.00
70027;BME280;57506;50.092;15.804;2023-06-22T04:16:22;99340.16;;;18.97;100.00
70027;BME280;57506;50.092;15.804;2023-06-22T04:18:48;99340.59;;;19.05;100.00
70027;BME280;57506;50.092;15.804;2023-06-22T04:21:13;99333.81;;;19.08;100.00
70027;BME280;57506;50.092;15.804;2023-06-22T04:23:39;99334.00;;;19.35;100.00
70027;BME280;57506;50.092;15.804;2023-06-22T04:26:05;99333.34;;;19.44;100.00
70027;BME280;57506;50.092;15.804;2023-06-22T04:28:30;99353.13;;;19.63;100.00
70027;BME280;57506;50.092;15.804;2023-06-22T04:31:01;99348.13;;;19.60;100.00
70027;BME280;57506;50.092;15.804;2023-06-22T04:33:27;99359.56;;;19.90;100.00
70027;BME280;57506;50.092;15.804;2023-06-22T04:35:52;99360.13;;;20.31;100.00
70027;BME280;57506;50.092;15.804;2023-06-22T04:38:18;99363.88;;;20.25;100.00
70027;BME280;57506;50.092;15.804;2023-06-22T04:40:43;99357.69;;;20.13;100.00
70027;BME280;57506;50.092;15.804;2023-06-22T04:43:09;99365.25;;;20.06;100.00
70027;BME280;57506;50.092;15.804;2023-06-22T04:45:35;99367.50;;;20.31;100.00
70027;BME280;57506;50.092;15.804;2023-06-22T04:48:04;99383.56;;;20.60;100.00
70027;BME280;57506;50.092;15.804;2023-06-22T04:50:30;99373.31;;;20.73;100.00
70027;BME280;57506;50.092;15.804;2023-06-22T04:52:55;99374.28;;;20.62;100.00
70027;BME280;57506;50.092;15.804;2023-06-22T04:55:21;99373.38;;;20.78;100.00
70027;BME280;57506;50.092;15.804;2023-06-22T04:57:48;99380.09;;;20.70;100.00
70027;BME280;57506;50.092;15.804;2023-06-22T05:00:17;99372.19;;;20.95;100.00
70027;BME280;57506;50.092;15.804;2023-06-22T05:02:45;99368.91;;;20.93;100.00
70027;BME280;57506;50.092;15.804;2023-06-22T05:05:12;99370.84;;;20.98;100.00
70027;BME280;57506;50.092;15.804;2023-06-22T05:07:46;99376.66;;;21.02;100.00
70027;BME280;57506;50.092;15.804;2023-06-22T05:10:13;99381.34;;;21.06;100.00
70027;BME280;57506;50.092;15.804;2023-06-22T05:12:40;99376.31;;;21.20;100.00
70027;BME280;57506;50.092;15.804;2023-06-22T05:15:08;99382.97;;;21.56;100.00
70027;BME280;57506;50.092;15.804;2023-06-22T05:17:37;99387.06;;;21.85;100.00
70027;BME280;57506;50.092;15.804;2023-06-22T05:20:12;99379.72;;;21.59;100.00
70027;BME280;57506;50.092;15.804;2023-06-22T05:22:41;99384.31;;;21.53;100.00
70027;BME280;57506;50.092;15.804;2023-06-22T05:25:09;99374.81;;;21.66;100.00
70027;BME280;57506;50.092;15.804;2023-06-22T05:27:35;99375.88;;;21.97;100.00
70027;BME280;57506;50.092;15.804;2023-06-22T05:30:06;99376.22;;;22.01;100.00
70027;BME280;57506;50.092;15.804;2023-06-22T05:32:32;99366.78;;;21.86;100.00
70027;BME280;57506;50.092;15.804;2023-06-22T05:34:59;99375.72;;;22.04;100.00
70027;BME280;57506;50.092;15.804;2023-06-22T05:37:24;99372.13;;;22.03;100.00
70027;BME280;57506;50.092;15.804;2023-06-22T05:39:50;99366.19;;;22.16;100.00
70027;BME280;57506;50.092;15.804;2023-06-22T05:42:16;99378.38;;;22.41;100.00
70027;BME280;57506;50.092;15.804;2023-06-22T05:44:41;99368.69;;;22.23;100.00
70027;BME280;57506;50.092;15.804;2023-06-22T05:47:07;99376.09;;;22.22;100.00
70027;BME280;57506;50.092;15.804;2023-06-22T05:49:33;99384.66;;;22.31;100.00
70027;BME280;57506;50.092;15.804;2023-06-22T05:51:59;99395.59;;;22.26;100.00
70027;BME280;57506;50.092;15.804;2023-06-22T05:54:27;99394.59;;;22.37;100.00
70027;BME280;57506;50.092;15.804;2023-06-22T05:56:52;99397.91;;;22.39;100.00
70027;BME280;57506;50.092;15.804;2023-06-22T05:59:18;99396.28;;;22.48;100.00
70027;BME280;57506;50.092;15.804;2023-06-22T06:01:44;99392.03;;;22.73;100.00
70027;BME280;57506;50.092;15.804;2023-06-22T06:04:10;99401.63;;;22.70;100.00
70027;BME280;57506;50.092;15.804;2023-06-22T06:06:36;99399.16;;;22.68;100.00
70027;BME280;57506;50.092;15.804;2023-06-22T06:09:05;99398.06;;;22.75;100.00
70027;BME280;57506;50.092;15.804;2023-06-22T06:11:33;99393.47;;;22.90;100.00
70027;BME280;57506;50.092;15.804;2023-06-22T06:13:58;99401.84;;;23.21;100.00
70027;BME280;57506;50.092;15.804;2023-06-22T06:16:24;99410.34;;;23.24;100.00
70027;BME280;57506;50.092;15.804;2023-06-22T06:18:49;99406.25;;;23.42;100.00
70027;BME280;57506;50.092;15.804;2023-06-22T06:21:16;99419.50;;;23.50;100.00
70027;BME280;57506;50.092;15.804;2023-06-22T06:23:42;99416.44;;;23.42;100.00
70027;BME280;57506;50.092;15.804;2023-06-22T06:26:08;99429.88;;;23.28;100.00
70027;BME280;57506;50.092;15.804;2023-06-22T06:28:34;99429.88;;;23.23;100.00
70027;BME280;57506;50.092;15.804;2023-06-22T06:31:00;99419.16;;;23.21;100.00
70027;BME280;57506;50.092;15.804;2023-06-22T06:33:26;99420.84;;;23.32;100.00
70027;BME280;57506;50.092;15.804;2023-06-22T06:35:52;99430.44;;;23.30;100.00
70027;BME280;57506;50.092;15.804;2023-06-22T06:38:17;99421.94;;;23.31;100.00
70027;BME280;57506;50.092;15.804;2023-06-22T06:40:46;99430.69;;;23.23;100.00
70027;BME280;57506;50.092;15.804;2023-06-22T06:43:12;99425.25;;;23.33;100.00
70027;BME280;57506;50.092;15.804;2023-06-22T06:45:38;99437.06;;;23.39;100.00
70027;BME280;57506;50.092;15.804;2023-06-22T06:48:03;99439.03;;;23.49;100.00
70027;BME280;57506;50.092;15.804;2023-06-22T06:50:29;99445.94;;;23.61;100.00
70027;BME280;57506;50.092;15.804;2023-06-22T06:52:55;99442.94;;;23.78;100.00
70027;BME280;57506;50.092;15.804;2023-06-22T06:55:21;99445.72;;;23.98;100.00
70027;BME280;57506;50.092;15.804;2023-06-22T06:57:50;99442.38;;;24.22;100.00
70027;BME280;57506;50.092;15.804;2023-06-22T07:00:18;99443.50;;;24.46;100.00
70027;BME280;57506;50.092;15.804;2023-06-22T07:02:44;99430.22;;;24.53;100.00
70027;BME280;57506;50.092;15.804;2023-06-22T07:05:12;99428.84;;;24.56;100.00
70027;BME280;57506;50.092;15.804;2023-06-22T07:07:38;99433.81;;;24.64;100.00
70027;BME280;57506;50.092;15.804;2023-06-22T07:10:05;99436.78;;;24.77;100.00
70027;BME280;57506;50.092;15.804;2023-06-22T07:12:31;99436.16;;;25.06;99.63
70027;BME280;57506;50.092;15.804;2023-06-22T07:15:07;99436.78;;;25.42;95.46
70027;BME280;57506;50.092;15.804;2023-06-22T07:17:34;99437.81;;;25.51;95.56
70027;BME280;57506;50.092;15.804;2023-06-22T07:20:00;99434.78;;;25.53;93.94
70027;BME280;57506;50.092;15.804;2023-06-22T07:22:26;99430.16;;;25.87;94.22
70027;BME280;57506;50.092;15.804;2023-06-22T07:24:51;99440.47;;;26.10;91.53
70027;BME280;57506;50.092;15.804;2023-06-22T07:27:17;99448.34;;;26.22;92.28
70027;BME280;57506;50.092;15.804;2023-06-22T07:29:46;99447.03;;;26.14;93.71
70027;BME280;57506;50.092;15.804;2023-06-22T07:32:12;99439.63;;;26.44;92.07
70027;BME280;57506;50.092;15.804;2023-06-22T07:34:38;99435.88;;;26.59;93.43
70027;BME280;57506;50.092;15.804;2023-06-22T07:37:04;99436.31;;;26.42;85.20
70027;BME280;57506;50.092;15.804;2023-06-22T07:39:30;99434.56;;;26.51;89.19
70027;BME280;57506;50.092;15.804;2023-06-22T07:41:56;99447.25;;;27.05;83.99
70027;BME280;57506;50.092;15.804;2023-06-22T07:44:21;99432.75;;;26.89;88.78
70027;BME280;57506;50.092;15.804;2023-06-22T07:46:47;99428.13;;;26.61;89.87
70027;BME280;57506;50.092;15.804;2023-06-22T07:49:13;99429.56;;;26.24;87.84
70027;BME280;57506;50.092;15.804;2023-06-22T07:51:38;99427.78;;;26.04;91.64
70027;BME280;57506;50.092;15.804;2023-06-22T07:54:04;99422.41;;;26.18;92.15
70027;BME280;57506;50.092;15.804;2023-06-22T07:56:30;99415.94;;;26.33;94.87
70027;BME280;57506;50.092;15.804;2023-06-22T07:58:56;99415.81;;;26.72;89.15
70027;BME280;57506;50.092;15.804;2023-06-22T08:01:23;99417.47;;;26.73;92.36
70027;BME280;57506;50.092;15.804;2023-06-22T08:03:49;99417.78;;;27.14;87.89
70027;BME280;57506;50.092;15.804;2023-06-22T08:06:16;99415.69;;;27.06;87.27
70027;BME280;57506;50.092;15.804;2023-06-22T08:08:42;99419.63;;;26.52;89.43
70027;BME280;57506;50.092;15.804;2023-06-22T08:11:10;99414.59;;;26.59;88.23
70027;BME280;57506;50.092;15.804;2023-06-22T08:13:36;99411.09;;;26.72;93.03
70027;BME280;57506;50.092;15.804;2023-06-22T08:16:05;99401.97;;;26.96;81.01
70027;BME280;57506;50.092;15.804;2023-06-22T08:18:30;99397.63;;;26.90;84.33
70027;BME280;57506;50.092;15.804;2023-06-22T08:20:56;99392.09;;;26.90;88.90
70027;BME280;57506;50.092;15.804;2023-06-22T08:23:21;99385.28;;;27.43;83.32
70027;BME280;57506;50.092;15.804;2023-06-22T08:25:47;99399.16;;;27.01;86.61
70027;BME280;57506;50.092;15.804;2023-06-22T08:28:15;99400.03;;;26.72;84.09
70027;BME280;57506;50.092;15.804;2023-06-22T08:30:41;99398.44;;;26.66;86.60
70027;BME280;57506;50.092;15.804;2023-06-22T08:33:06;99382.50;;;27.06;91.84
70027;BME280;57506;50.092;15.804;2023-06-22T08:35:32;99395.31;;;26.97;85.92
70027;BME280;57506;50.092;15.804;2023-06-22T08:37:58;99388.66;;;27.40;79.71
70027;BME280;57506;50.092;15.804;2023-06-22T08:40:25;99376.59;;;27.50;79.04
70027;BME280;57506;50.092;15.804;2023-06-22T08:42:50;99374.09;;;27.86;80.20
70027;BME280;57506;50.092;15.804;2023-06-22T08:45:16;99374.13;;;28.00;79.33
70027;BME280;57506;50.092;15.804;2023-06-22T08:47:42;99373.69;;;27.93;77.52
70027;BME280;57506;50.092;15.804;2023-06-22T08:50:11;99375.88;;;28.09;75.25
70027;BME280;57506;50.092;15.804;2023-06-22T08:52:38;99358.94;;;27.97;79.72
70027;BME280;57506;50.092;15.804;2023-06-22T08:55:07;99370.13;;;28.38;76.49
70027;BME280;57506;50.092;15.804;2023-06-22T08:57:33;99364.91;;;28.64;76.87
70027;BME280;57506;50.092;15.804;2023-06-22T08:59:58;99360.78;;;28.48;79.73
70027;BME280;57506;50.092;15.804;2023-06-22T09:02:28;99360.47;;;28.36;77.07
70027;BME280;57506;50.092;15.804;2023-06-22T09:04:57;99353.81;;;28.50;73.31
70027;BME280;57506;50.092;15.804;2023-06-22T09:07:23;99353.38;;;28.30;73.29
70027;BME280;57506;50.092;15.804;2023-06-22T09:09:50;99347.75;;;28.62;73.63
70027;BME280;57506;50.092;15.804;2023-06-22T09:12:16;99350.41;;;28.95;72.99
70027;BME280;57506;50.092;15.804;2023-06-22T09:14:42;99344.84;;;28.95;71.18
70027;BME280;57506;50.092;15.804;2023-06-22T09:17:07;99347.00;;;28.98;69.87
70027;BME280;57506;50.092;15.804;2023-06-22T09:19:33;99345.13;;;29.20;70.79
70027;BME280;57506;50.092;15.804;2023-06-22T09:21:59;99341.53;;;29.20;75.62
70027;BME280;57506;50.092;15.804;2023-06-22T09:24:25;99326.88;;;29.42;68.65
70027;BME280;57506;50.092;15.804;2023-06-22T09:26:50;99328.53;;;29.29;73.21
70027;BME280;57506;50.092;15.804;2023-06-22T09:29:16;99319.38;;;29.29;65.71
70027;BME280;57506;50.092;15.804;2023-06-22T09:31:42;99326.78;;;29.55;69.82
70027;BME280;57506;50.092;15.804;2023-06-22T09:34:07;99319.16;;;29.83;67.45
70027;BME280;57506;50.092;15.804;2023-06-22T09:36:33;99315.75;;;29.64;67.82
70027;BME280;57506;50.092;15.804;2023-06-22T09:38:59;99315.44;;;29.66;67.97
70027;BME280;57506;50.092;15.804;2023-06-22T09:41:26;99315.25;;;29.84;66.50
70027;BME280;57506;50.092;15.804;2023-06-22T09:43:52;99314.59;;;29.87;64.30
70027;BME280;57506;50.092;15.804;2023-06-22T09:46:18;99313.63;;;30.14;62.90
70027;BME280;57506;50.092;15.804;2023-06-22T09:48:48;99309.09;;;30.18;64.19
70027;BME280;57506;50.092;15.804;2023-06-22T09:51:13;99309.53;;;30.12;68.64
70027;BME280;57506;50.092;15.804;2023-06-22T09:53:39;99303.84;;;30.25;61.80
70027;BME280;57506;50.092;15.804;2023-06-22T09:56:04;99302.47;;;30.45;62.56
70027;BME280;57506;50.092;15.804;2023-06-22T09:58:31;99299.00;;;30.40;64.18
70027;BME280;57506;50.092;15.804;2023-06-22T10:00:57;99300.25;;;30.65;62.27
70027;BME280;57506;50.092;15.804;2023-06-22T10:03:22;99297.19;;;30.83;60.05
70027;BME280;57506;50.092;15.804;2023-06-22T10:05:48;99300.44;;;30.85;60.40
70027;BME280;57506;50.092;15.804;2023-06-22T10:08:14;99299.50;;;30.99;59.20
70027;BME280;57506;50.092;15.804;2023-06-22T10:10:39;99292.94;;;31.03;59.54
70027;BME280;57506;50.092;15.804;2023-06-22T10:13:11;99291.81;;;30.95;57.84
70027;BME280;57506;50.092;15.804;2023-06-22T10:15:37;99292.78;;;31.00;57.05
70027;BME280;57506;50.092;15.804;2023-06-22T10:18:03;99290.38;;;30.50;58.84
70027;BME280;57506;50.092;15.804;2023-06-22T10:20:28;99297.22;;;30.35;58.92
70027;BME280;57506;50.092;15.804;2023-06-22T10:22:54;99294.38;;;30.26;59.52
70027;BME280;57506;50.092;15.804;2023-06-22T10:25:21;99293.03;;;30.55;58.98
70027;BME280;57506;50.092;15.804;2023-06-22T10:27:47;99290.59;;;30.62;60.27
70027;BME280;57506;50.092;15.804;2023-06-22T10:30:13;99281.97;;;30.89;58.08
70027;BME280;57506;50.092;15.804;2023-06-22T10:32:39;99285.13;;;31.14;58.30
70027;BME280;57506;50.092;15.804;2023-06-22T10:35:06;99273.16;;;31.48;57.66
70027;BME280;57506;50.092;15.804;2023-06-22T10:37:32;99273.13;;;31.74;55.58
70027;BME280;57506;50.092;15.804;2023-06-22T10:39:57;99273.09;;;31.82;52.52
70027;BME280;57506;50.092;15.804;2023-06-22T10:42:23;99271.31;;;31.78;54.10
70027;BME280;57506;50.092;15.804;2023-06-22T10:44:49;99274.38;;;31.85;55.71
70027;BME280;57506;50.092;15.804;2023-06-22T10:47:14;99275.25;;;31.77;55.08
70027;BME280;57506;50.092;15.804;2023-06-22T10:49:40;99274.72;;;31.83;55.03
70027;BME280;57506;50.092;15.804;2023-06-22T10:52:07;99281.53;;;32.12;52.19
70027;BME280;57506;50.092;15.804;2023-06-22T10:54:33;99270.72;;;32.10;50.19
70027;BME280;57506;50.092;15.804;2023-06-22T10:57:00;99262.91;;;31.95;53.03
70027;BME280;57506;50.092;15.804;2023-06-22T10:59:25;99263.03;;;31.98;51.26
70027;BME280;57506;50.092;15.804;2023-06-22T11:01:53;99265.91;;;31.64;51.59
70027;BME280;57506;50.092;15.804;2023-06-22T11:04:18;99257.44;;;32.07;51.43
70027;BME280;57506;50.092;15.804;2023-06-22T11:06:44;99249.31;;;31.85;54.97
70027;BME280;57506;50.092;15.804;2023-06-22T11:09:09;99249.91;;;31.99;51.67
70027;BME280;57506;50.092;15.804;2023-06-22T11:11:35;99245.34;;;31.94;52.56
70027;BME280;57506;50.092;15.804;2023-06-22T11:14:00;99243.31;;;32.12;54.03
70027;BME280;57506;50.092;15.804;2023-06-22T11:16:26;99238.84;;;32.28;50.92
70027;BME280;57506;50.092;15.804;2023-06-22T11:18:52;99235.94;;;32.08;52.04
70027;BME280;57506;50.092;15.804;2023-06-22T11:21:18;99242.75;;;31.89;53.90
70027;BME280;57506;50.092;15.804;2023-06-22T11:23:43;99244.25;;;32.25;51.52
70027;BME280;57506;50.092;15.804;2023-06-22T11:26:09;99240.47;;;32.29;50.87
70027;BME280;57506;50.092;15.804;2023-06-22T11:28:35;99237.75;;;32.12;51.25
70027;BME280;57506;50.092;15.804;2023-06-22T11:31:00;99231.75;;;31.84;51.35
70027;BME280;57506;50.092;15.804;2023-06-22T11:33:27;99229.44;;;31.95;49.75
70027;BME280;57506;50.092;15.804;2023-06-22T11:35:52;99236.59;;;32.13;49.02
70027;BME280;57506;50.092;15.804;2023-06-22T11:38:18;99231.19;;;32.08;51.31
70027;BME280;57506;50.092;15.804;2023-06-22T11:40:43;99235.06;;;32.24;52.11
70027;BME280;57506;50.092;15.804;2023-06-22T11:43:09;99227.28;;;32.00;49.49
70027;BME280;57506;50.092;15.804;2023-06-22T11:45:35;99232.56;;;32.31;49.60
70027;BME280;57506;50.092;15.804;2023-06-22T11:48:00;99231.28;;;32.29;48.27
70027;BME280;57506;50.092;15.804;2023-06-22T11:50:26;99222.03;;;32.37;48.56
70027;BME280;57506;50.092;15.804;2023-06-22T11:52:53;99216.75;;;32.65;50.08
70027;BME280;57506;50.092;15.804;2023-06-22T11:55:19;99216.88;;;32.48;47.01
70027;BME280;57506;50.092;15.804;2023-06-22T11:57:57;99213.75;;;32.49;47.78
70027;BME280;57506;50.092;15.804;2023-06-22T12:00:29;99212.53;;;32.38;49.78
70027;BME280;57506;50.092;15.804;2023-06-22T12:02:55;99215.53;;;32.54;48.23
70027;BME280;57506;50.092;15.804;2023-06-22T12:05:21;99205.38;;;32.49;47.62
70027;BME280;57506;50.092;15.804;2023-06-22T12:07:48;99209.41;;;32.40;46.28
70027;BME280;57506;50.092;15.804;2023-06-22T12:10:14;99210.53;;;32.00;47.59
70027;BME280;57506;50.092;15.804;2023-06-22T12:12:40;99194.84;;;31.96;49.81
70027;BME280;57506;50.092;15.804;2023-06-22T12:15:06;99193.94;;;32.13;47.66
70027;BME280;57506;50.092;15.804;2023-06-22T12:17:33;99192.28;;;32.20;46.97
70027;BME280;57506;50.092;15.804;2023-06-22T12:19:59;99199.69;;;32.08;47.98
70027;BME280;57506;50.092;15.804;2023-06-22T12:22:24;99184.94;;;32.07;45.74
70027;BME280;57506;50.092;15.804;2023-06-22T12:24:50;99187.25;;;32.05;47.14
70027;BME280;57506;50.092;15.804;2023-06-22T12:27:17;99177.47;;;32.28;46.84
70027;BME280;57506;50.092;15.804;2023-06-22T12:29:46;99181.00;;;32.38;45.96
70027;BME280;57506;50.092;15.804;2023-06-22T12:32:11;99175.03;;;32.27;46.05
70027;BME280;57506;50.092;15.804;2023-06-22T12:34:42;99178.84;;;32.14;47.16
70027;BME280;57506;50.092;15.804;2023-06-22T12:37:07;99180.56;;;31.97;46.77
70027;BME280;57506;50.092;15.804;2023-06-22T12:39:33;99167.47;;;32.27;46.51
70027;BME280;57506;50.092;15.804;2023-06-22T12:41:59;99172.84;;;32.32;48.96
70027;BME280;57506;50.092;15.804;2023-06-22T12:44:25;99167.19;;;32.20;47.88
70027;BME280;57506;50.092;15.804;2023-06-22T12:46:51;99160.00;;;32.61;47.27
70027;BME280;57506;50.092;15.804;2023-06-22T12:49:17;99145.63;;;32.71;49.77
70027;BME280;57506;50.092;15.804;2023-06-22T12:51:43;99150.72;;;32.78;47.80